createdAt,value
2023-05-21T00:02:00.305Z,17.50
2023-05-21T00:07:02.485Z,13.87
2023-05-21T00:12:08.221Z,15.15
2023-05-21T00:17:10.536Z,17.50
2023-05-21T00:22:14.328Z,16.30
2023-05-21T00:27:16.654Z,17.08
2023-05-21T00:32:18.792Z,15.23
2023-05-21T00:37:21.824Z,15.00
2023-05-21T00:42:27.385Z,15.57
2023-05-21T00:47:29.725Z,17.40
2023-05-21T00:52:32.116Z,17.37
2023-05-21T00:57:37.237Z,16.07
2023-05-21T01:02:39.608Z,17.02
2023-05-21T01:07:41.926Z,16.70
2023-05-21T01:12:44.964Z,17.25
2023-05-21T01:17:48.897Z,15.88
2023-05-21T01:22:54.681Z,15.87
2023-05-21T01:27:57.947Z,17.35
2023-05-21T01:33:02.760Z,16.60
2023-05-21T01:38:22.809Z,17.10
2023-05-21T01:43:27.969Z,14.50
2023-05-21T01:48:31.069Z,16.77
2023-05-21T01:53:33.625Z,16.25
2023-05-21T01:58:36.159Z,17.45
2023-05-21T02:03:38.815Z,16.23
2023-05-21T02:08:41.044Z,17.17
2023-05-21T02:13:43.358Z,19.20
2023-05-21T02:18:46.494Z,15.30
2023-05-21T02:23:48.911Z,15.60
2023-05-21T02:28:52.830Z,17.12
2023-05-21T02:33:55.023Z,17.77
2023-05-21T02:38:57.821Z,16.83
2023-05-21T02:44:00.218Z,16.45
2023-05-21T02:49:02.623Z,16.75
2023-05-21T02:54:04.802Z,15.25
2023-05-21T02:59:07.083Z,16.02
2023-05-21T03:04:09.292Z,16.30
2023-05-21T03:09:11.496Z,15.98
2023-05-21T03:14:14.476Z,18.42
2023-05-21T03:19:16.792Z,17.45
2023-05-21T03:24:19.018Z,17.98
2023-05-21T03:29:21.953Z,17.33
2023-05-21T03:34:24.613Z,17.20
2023-05-21T03:39:26.766Z,16.02
2023-05-21T03:44:32.420Z,17.20
2023-05-21T03:49:34.639Z,15.63
2023-05-21T03:54:37.208Z,15.60
2023-05-21T03:59:39.402Z,17.37
2023-05-21T04:04:41.625Z,16.83
2023-05-21T04:09:43.913Z,15.20
2023-05-21T04:14:46.739Z,16.08
2023-05-21T04:19:49.160Z,16.03
2023-05-21T04:24:52.731Z,14.93
2023-05-21T04:29:54.881Z,15.32
2023-05-21T04:34:57.599Z,15.38
2023-05-21T04:40:01.599Z,15.07
2023-05-21T04:45:04.015Z,14.70
2023-05-21T04:50:06.923Z,15.80
2023-05-21T04:55:09.263Z,14.80
2023-05-21T05:00:12.637Z,16.20
2023-05-21T05:05:14.973Z,14.15
2023-05-21T05:10:17.506Z,13.80
2023-05-21T05:15:19.727Z,13.60
2023-05-21T05:20:22.039Z,13.50
2023-05-21T05:25:24.412Z,12.27
2023-05-21T05:30:26.888Z,12.90
2023-05-21T05:35:29.054Z,11.13
2023-05-21T05:40:31.346Z,10.80
2023-05-21T05:45:33.492Z,11.20
2023-05-21T05:50:35.632Z,11.80
2023-05-21T05:55:38.229Z,11.70
2023-05-21T06:00:40.987Z,11.73
2023-05-21T06:05:43.239Z,10.70
2023-05-21T06:10:45.562Z,14.10
2023-05-21T06:15:47.751Z,12.02
2023-05-21T06:20:49.977Z,11.30
2023-05-21T06:25:52.168Z,10.97
2023-05-21T06:30:54.351Z,11.57
2023-05-21T06:35:56.496Z,10.35
2023-05-21T06:40:58.675Z,13.90
2023-05-21T06:46:01.659Z,12.32
2023-05-21T06:51:04.083Z,11.07
2023-05-21T06:56:06.519Z,16.42
2023-05-21T07:01:08.724Z,14.43
2023-05-21T07:06:11.006Z,10.55
2023-05-21T07:11:13.804Z,11.65
2023-05-21T07:16:17.928Z,10.60
2023-05-21T07:21:20.247Z,10.38
2023-05-21T07:26:26.400Z,10.50
2023-05-21T07:31:28.697Z,10.60
2023-05-21T07:36:31.239Z,11.48
2023-05-21T07:41:33.609Z,15.13
2023-05-21T07:46:35.951Z,14.57
2023-05-21T07:51:38.298Z,14.48
2023-05-21T07:56:40.454Z,11.30
2023-05-21T08:01:43.449Z,12.27
2023-05-21T08:06:45.772Z,11.07
2023-05-21T08:11:47.915Z,12.60
2023-05-21T08:16:50.192Z,12.75
2023-05-21T08:21:53.094Z,12.30
2023-05-21T08:26:55.458Z,11.07
2023-05-21T08:31:57.740Z,11.80
2023-05-21T08:37:00.067Z,12.98
2023-05-21T08:42:22.568Z,12.63
2023-05-21T08:47:34.999Z,14.27
2023-05-21T08:52:37.721Z,14.43
2023-05-21T08:57:44.127Z,14.00
2023-05-21T09:02:46.937Z,14.13
2023-05-21T09:08:28.055Z,14.15
2023-05-21T09:13:32.610Z,15.43
2023-05-21T09:18:34.879Z,15.60
2023-05-21T09:23:37.173Z,17.37
2023-05-21T09:28:39.487Z,16.65
2023-05-21T09:33:47.917Z,17.25
2023-05-21T09:38:52.070Z,17.48
2023-05-21T09:43:59.833Z,16.33
2023-05-21T09:49:02.060Z,16.93
2023-05-21T09:54:04.220Z,17.90
2023-05-21T09:59:07.432Z,17.58
2023-05-21T10:04:10.556Z,18.52
2023-05-21T10:09:15.752Z,18.17
2023-05-21T10:14:22.888Z,18.70
2023-05-21T10:19:25.841Z,19.27
2023-05-21T10:24:29.005Z,18.42
2023-05-21T10:29:32.215Z,19.55
2023-05-21T10:34:36.004Z,18.58
2023-05-21T10:39:39.487Z,19.10
2023-05-21T10:45:19.149Z,20.88
2023-05-21T10:50:44.891Z,19.65
2023-05-21T10:56:08.940Z,18.77
2023-05-21T11:01:12.573Z,17.60
2023-05-21T11:06:25.384Z,16.67
2023-05-21T11:11:50.923Z,16.60
2023-05-21T11:16:53.266Z,15.00
2023-05-21T11:21:56.103Z,14.50
2023-05-21T11:27:01.634Z,15.13
2023-05-21T11:32:05.762Z,14.43
2023-05-21T11:37:37.300Z,18.17
2023-05-21T11:42:39.835Z,18.77
2023-05-21T11:47:44.294Z,21.10
2023-05-21T11:52:46.876Z,21.92
2023-05-21T11:57:53.033Z,23.00
2023-05-21T12:02:57.100Z,21.33
2023-05-21T12:07:59.939Z,20.70
2023-05-21T12:13:02.504Z,21.65
2023-05-21T12:18:04.825Z,23.45
2023-05-21T12:23:07.056Z,21.90
2023-05-21T12:28:09.229Z,20.73
2023-05-21T12:33:12.269Z,21.50
2023-05-21T12:38:14.540Z,20.65
2023-05-21T12:43:16.774Z,21.30
2023-05-21T12:48:18.961Z,21.80
2023-05-21T12:53:21.204Z,19.27
2023-05-21T12:58:23.409Z,22.23
2023-05-21T13:03:27.174Z,25.20
2023-05-21T13:08:29.627Z,18.73
2023-05-21T13:13:32.083Z,20.03
2023-05-21T13:18:34.283Z,19.98
2023-05-21T13:23:36.479Z,20.73
2023-05-21T13:28:39.510Z,21.42
2023-05-21T13:33:43.006Z,20.12
2023-05-21T13:38:45.321Z,20.10
2023-05-21T13:43:47.523Z,19.50
2023-05-21T13:48:49.803Z,18.35
2023-05-21T13:53:51.959Z,19.58
2023-05-21T13:58:54.211Z,18.33
2023-05-21T14:03:56.520Z,19.17
2023-05-21T14:09:00.007Z,19.25
2023-05-21T14:14:03.024Z,22.23
2023-05-21T14:19:05.232Z,20.33
2023-05-21T14:24:07.858Z,20.17
2023-05-21T14:29:10.526Z,20.50
2023-05-21T14:34:12.682Z,20.67
2023-05-21T14:39:14.921Z,18.62
2023-05-21T14:44:17.140Z,19.67
2023-05-21T14:49:19.361Z,19.85
2023-05-21T14:54:21.606Z,19.03
2023-05-21T14:59:23.876Z,18.45
2023-05-21T15:04:26.630Z,18.23
2023-05-21T15:09:28.839Z,19.40
2023-05-21T15:14:31.126Z,18.60
2023-05-21T15:19:33.497Z,16.77
2023-05-21T15:24:36.464Z,17.52
2023-05-21T15:29:38.976Z,16.75
2023-05-21T15:34:41.242Z,16.98
2023-05-21T15:39:51.331Z,16.30
2023-05-21T15:44:53.495Z,15.23
2023-05-21T15:49:56.441Z,15.73
2023-05-21T15:54:58.602Z,14.35
2023-05-21T16:00:00.936Z,12.73
2023-05-21T16:05:03.312Z,13.40
2023-05-21T16:10:08.215Z,12.00
2023-05-21T16:15:10.921Z,13.18
2023-05-21T16:20:13.524Z,12.05
2023-05-21T16:25:15.858Z,13.37
2023-05-21T16:30:17.986Z,12.02
2023-05-21T16:35:20.404Z,11.83
2023-05-21T16:40:22.694Z,13.85
2023-05-21T16:45:24.857Z,11.30
2023-05-21T16:50:27.044Z,13.02
2023-05-21T16:55:31.705Z,12.25
2023-05-21T17:00:34.326Z,11.37
2023-05-21T17:05:36.776Z,12.13
2023-05-21T17:10:39.234Z,13.20
2023-05-21T17:15:41.519Z,12.77
2023-05-21T17:20:43.938Z,11.52
2023-05-21T17:25:46.414Z,12.20
2023-05-21T17:30:49.654Z,13.25
2023-05-21T17:35:52.110Z,12.20
2023-05-21T17:40:55.634Z,12.40
2023-05-21T17:45:58.385Z,12.75
2023-05-21T17:51:00.590Z,11.20
2023-05-21T17:56:03.523Z,11.95
2023-05-21T18:01:05.992Z,11.88
2023-05-21T18:06:09.499Z,11.50
2023-05-21T18:11:12.022Z,11.35
2023-05-21T18:16:14.234Z,12.57
2023-05-21T18:21:16.566Z,12.15
2023-05-21T18:26:19.949Z,12.57
2023-05-21T18:31:23.229Z,11.98
2023-05-21T18:36:26.699Z,12.63
2023-05-21T18:41:28.972Z,14.50
2023-05-21T18:46:31.702Z,13.82
2023-05-21T18:51:34.049Z,14.10
2023-05-21T18:56:36.230Z,15.00
2023-05-21T19:01:38.638Z,15.82
2023-05-21T19:06:40.842Z,14.67
2023-05-21T19:11:43.167Z,15.85
2023-05-21T19:16:45.483Z,15.95
2023-05-21T19:21:51.219Z,13.27
2023-05-21T19:26:53.547Z,18.45
2023-05-21T19:31:57.446Z,16.63
2023-05-21T19:36:59.666Z,18.52
2023-05-21T19:42:01.966Z,14.87
2023-05-21T19:47:04.465Z,16.52
2023-05-21T19:52:06.708Z,16.60
2023-05-21T19:57:10.961Z,14.47
2023-05-21T20:02:16.990Z,15.98
2023-05-21T20:07:19.210Z,15.93
2023-05-21T20:12:21.393Z,12.93
2023-05-21T20:17:24.587Z,14.57
2023-05-21T20:22:27.870Z,16.63
2023-05-21T20:27:30.266Z,15.82
2023-05-21T20:32:32.411Z,17.27
2023-05-21T20:37:34.573Z,17.15
2023-05-21T20:42:36.798Z,16.90
2023-05-21T20:47:39.224Z,14.43
2023-05-21T20:52:41.523Z,16.48
2023-05-21T20:57:43.823Z,22.20
2023-05-21T21:02:46.109Z,16.37
2023-05-21T21:07:48.391Z,14.82
2023-05-21T21:12:50.677Z,15.67
2023-05-21T21:17:53.050Z,14.70
2023-05-21T21:22:55.845Z,15.40
2023-05-21T21:27:58.090Z,12.85
2023-05-21T21:33:00.595Z,15.60
2023-05-21T21:38:04.977Z,15.33
2023-05-21T21:43:07.324Z,13.85
2023-05-21T21:48:09.539Z,14.85
2023-05-21T21:53:14.096Z,14.23
2023-05-21T21:58:16.389Z,14.32
2023-05-21T22:03:18.912Z,13.67
2023-05-21T22:08:21.784Z,14.87
2023-05-21T22:13:26.981Z,13.35
2023-05-21T22:18:39.478Z,14.25
2023-05-21T22:23:42.977Z,15.07
2023-05-21T22:28:45.295Z,14.20
2023-05-21T22:33:47.480Z,15.40
2023-05-21T22:38:49.708Z,13.93
2023-05-21T22:43:52.380Z,14.40
2023-05-21T22:48:54.591Z,13.98
2023-05-21T22:53:56.883Z,15.23
2023-05-21T22:58:59.674Z,15.30
2023-05-21T23:04:01.862Z,13.10
2023-05-21T23:09:07.138Z,14.73
2023-05-21T23:14:09.368Z,14.15
2023-05-21T23:19:14.283Z,13.90
2023-05-21T23:24:16.631Z,14.38
2023-05-21T23:29:19.075Z,13.85
2023-05-21T23:34:21.396Z,17.35
2023-05-21T23:39:23.748Z,14.27
2023-05-21T23:44:25.994Z,17.13
2023-05-21T23:49:28.156Z,12.65
2023-05-21T23:54:30.776Z,13.65
2023-05-21T23:59:33.037Z,14.98
